Time;durP1;ratioP1;P1;durP2;ratioP2;P2;SDS_P1;SDS_P2;PMS_P1;PMS_P2;Temp;Humidity;BMP_temperature;BMP_pressure;BME280_temperature;BME280_humidity;BME280_pressure;Samples;Min_cycle;Max_cycle;Signal;HPM_P1;HPM_P2
2022/03/15 00:00:15;;;;;;;8.40;4.30;;;;;;;9.15;60.94;101540.16;5032581;28;20472;-84
2022/03/15 00:02:41;;;;;;;5.78;3.95;;;;;;;9.11;60.93;101544.31;5032997;28;20459;-83
2022/03/15 00:05:07;;;;;;;9.40;3.97;;;;;;;9.10;61.28;101539.94;5030454;28;20815;-83
2022/03/15 00:07:32;;;;;;;6.57;3.83;;;;;;;9.10;60.99;101532.66;5032879;28;20449;-84
2022/03/15 00:09:57;;;;;;;5.70;3.90;;;;;;;9.09;61.41;101530.19;5032984;28;20469;-83
2022/03/15 00:12:23;;;;;;;8.37;4.30;;;;;;;9.02;61.63;101526.66;5032652;28;20977;-84
2022/03/15 00:14:49;;;;;;;7.00;4.00;;;;;;;8.96;60.99;101528.28;5042924;28;20504;-84
2022/03/15 00:17:14;;;;;;;6.13;4.07;;;;;;;8.83;62.01;101528.28;5031563;28;20410;-84
2022/03/15 00:19:39;;;;;;;9.30;4.47;;;;;;;8.80;61.89;101521.44;5032909;28;20403;-84
2022/03/15 00:22:05;;;;;;;7.20;3.97;;;;;;;8.79;61.47;101518.94;5030311;28;20492;-84
2022/03/15 00:24:30;;;;;;;6.88;3.83;;;;;;;8.85;61.81;101524.38;5022931;28;20885;-84
2022/03/15 00:26:55;;;;;;;9.27;4.83;;;;;;;8.87;61.32;101521.44;5030509;28;20414;-83
2022/03/15 00:29:23;;;;;;;8.20;4.40;;;;;;;8.87;61.39;101507.91;5031461;28;20411;-83
2022/03/15 00:31:48;;;;;;;9.75;5.22;;;;;;;8.91;61.13;101509.19;5032976;28;20399;-83
2022/03/15 00:34:14;;;;;;;8.43;4.90;;;;;;;8.89;61.67;101505.03;5031242;28;20425;-84
2022/03/15 00:36:39;;;;;;;7.65;4.75;;;;;;;8.83;61.54;101501.25;5030145;28;20965;-84
2022/03/15 00:39:05;;;;;;;9.33;5.23;;;;;;;8.75;61.77;101502.31;5031278;28;20494;-83
2022/03/15 00:41:30;;;;;;;5.80;3.90;;;;;;;8.73;61.93;101495.44;5032633;28;20411;-84
2022/03/15 00:43:56;;;;;;;9.82;3.83;;;;;;;8.74;61.77;101492.53;5028148;28;20418;-84
2022/03/15 00:46:21;;;;;;;7.53;4.15;;;;;;;8.73;61.92;101495.44;5027419;28;20494;-84
2022/03/15 00:48:47;;;;;;;7.40;3.83;;;;;;;8.65;62.37;101490.25;5032440;28;20921;-84
2022/03/15 00:51:12;;;;;;;6.80;3.90;;;;;;;8.67;61.90;101478.19;5030702;28;20411;-84
2022/03/15 00:53:37;;;;;;;7.43;3.50;;;;;;;8.66;61.88;101476.50;5031895;28;20395;-84
2022/03/15 00:56:04;;;;;;;6.43;3.50;;;;;;;8.66;61.92;101479.22;5018827;28;20459;-83
2022/03/15 00:58:33;;;;;;;8.25;3.38;;;;;;;8.76;61.36;101484.22;5031602;28;20446;-84
2022/03/15 01:00:59;;;;;;;6.75;3.35;;;;;;;8.82;61.25;101469.88;5028981;28;20417;-83
2022/03/15 01:03:24;;;;;;;7.63;3.45;;;;;;;8.86;61.00;101473.81;5027725;28;20499;-84
2022/03/15 01:05:50;;;;;;;8.13;3.60;;;;;;;8.84;60.93;101470.50;5014845;28;20413;-83
2022/03/15 01:08:16;;;;;;;7.50;3.60;;;;;;;8.84;61.05;101470.50;5027606;28;20416;-83
2022/03/15 01:10:42;;;;;;;9.38;3.55;;;;;;;8.82;61.48;101465.28;5032026;28;20452;-84
2022/03/15 01:13:08;;;;;;;9.65;3.35;;;;;;;8.82;61.53;101459.06;5030563;28;20395;-83
2022/03/15 01:15:40;;;;;;;6.95;3.35;;;;;;;8.77;61.48;101458.84;5031826;28;20433;-84
2022/03/15 01:18:06;;;;;;;5.38;3.42;;;;;;;8.74;61.81;101456.56;5032100;28;20406;-84
2022/03/15 01:20:31;;;;;;;8.67;3.37;;;;;;;8.75;61.52;101452.84;5026008;28;20407;-84
2022/03/15 01:22:57;;;;;;;6.73;3.53;;;;;;;8.73;61.71;101453.03;5046048;28;20409;-84
2022/03/15 01:25:22;;;;;;;7.82;3.17;;;;;;;8.79;61.47;101462.19;5031579;28;20841;-83
2022/03/15 01:27:48;;;;;;;11.10;3.72;;;;;;;8.78;61.14;101457.81;5029313;28;20419;-84
2022/03/15 01:30:13;;;;;;;4.63;2.80;;;;;;;8.76;62.13;101466.13;5031808;28;20410;-83
2022/03/15 01:32:38;;;;;;;9.48;3.80;;;;;;;8.71;61.97;101455.13;5031363;28;20472;-84
2022/03/15 01:35:04;;;;;;;7.23;3.17;;;;;;;8.63;61.88;101449.06;5031613;28;20414;-84
2022/03/15 01:37:30;;;;;;;6.30;3.03;;;;;;;8.53;62.22;101446.00;5029573;28;20418;-83
2022/03/15 01:39:55;;;;;;;9.10;3.27;;;;;;;8.56;62.34;101449.06;5029906;28;20445;-84
2022/03/15 01:42:20;;;;;;;5.70;3.20;;;;;;;8.67;61.67;101444.94;5031005;28;20411;-83
2022/03/15 01:44:47;;;;;;;6.90;2.83;;;;;;;8.74;61.71;101451.16;5030542;28;20434;-83
2022/03/15 01:47:13;;;;;;;7.70;3.27;;;;;;;8.74;61.26;101453.88;5030174;28;20410;-83
2022/03/15 01:49:39;;;;;;;7.35;3.03;;;;;;;8.75;61.49;101450.97;5031162;28;20407;-83
2022/03/15 01:52:05;;;;;;;3.90;3.10;;;;;;;8.74;61.54;101454.69;5044529;28;20763;-83
2022/03/15 01:54:32;;;;;;;5.80;3.00;;;;;;;8.67;62.02;101463.84;5029197;28;20422;-83
2022/03/15 01:56:57;;;;;;;7.82;3.60;;;;;;;8.67;61.84;101455.72;5030191;28;20395;-84
2022/03/15 01:59:22;;;;;;;7.50;3.20;;;;;;;8.65;62.10;101447.00;5030909;28;20414;-83
2022/03/15 02:01:48;;;;;;;5.90;3.40;;;;;;;8.66;62.22;101451.38;5021397;28;20423;-83
2022/03/15 02:04:15;;;;;;;8.80;3.07;;;;;;;8.67;62.13;101447.63;5022368;28;20407;-83
2022/03/15 02:06:42;;;;;;;5.78;3.10;;;;;;;8.62;62.47;101450.97;5033385;28;20419;-83
2022/03/15 02:09:18;;;;;;;5.43;3.38;;;;;;;8.59;62.71;101454.09;5021309;28;20410;-84
2022/03/15 02:11:44;;;;;;;5.95;3.30;;;;;;;8.60;62.63;101460.31;5029975;28;20901;-83
2022/03/15 02:14:10;;;;;;;7.75;3.50;;;;;;;8.55;62.29;101454.69;5027006;28;20413;-84
2022/03/15 02:16:35;;;;;;;4.35;2.95;;;;;;;8.49;62.66;101450.97;5029986;28;20406;-83
2022/03/15 02:19:02;;;;;;;7.40;3.60;;;;;;;8.49;63.48;101463.63;5029378;28;20427;-83
2022/03/15 02:21:28;;;;;;;5.43;3.53;;;;;;;8.49;63.25;101460.94;5028226;28;20401;-83
2022/03/15 02:23:54;;;;;;;7.87;3.27;;;;;;;8.48;63.41;101459.28;5045360;28;20460;-83
2022/03/15 02:26:19;;;;;;;7.73;3.27;;;;;;;8.45;63.77;101457.81;5030034;28;20403;-84
2022/03/15 02:28:45;;;;;;;6.37;3.30;;;;;;;8.50;63.49;101451.78;5029694;28;20464;-83
2022/03/15 02:31:10;;;;;;;10.00;4.30;;;;;;;8.45;63.33;101451.56;5029493;28;20825;-83
2022/03/15 02:33:36;;;;;;;6.00;3.77;;;;;;;8.48;63.67;101457.41;5028142;28;20821;-83
2022/03/15 02:36:01;;;;;;;9.20;3.90;;;;;;;8.51;63.30;101453.44;5027662;28;20415;-83
2022/03/15 02:38:26;;;;;;;9.43;3.90;;;;;;;8.53;62.88;101457.59;5028401;28;20486;-83
2022/03/15 02:40:52;;;;;;;6.97;3.73;;;;;;;8.51;63.65;101448.88;5028806;28;20416;-83
2022/03/15 02:43:17;;;;;;;9.07;3.57;;;;;;;8.49;63.20;101440.16;5024801;28;20401;-83
2022/03/15 02:45:42;;;;;;;10.37;3.70;;;;;;;8.47;63.12;101444.09;5027522;28;20421;-83
2022/03/15 02:48:07;;;;;;;5.40;3.30;;;;;;;8.46;63.47;101439.75;5027671;28;20434;-83
2022/03/15 02:50:33;;;;;;;7.80;3.50;;;;;;;8.47;63.97;101438.69;5045751;28;20767;-83
2022/03/15 02:52:58;;;;;;;9.60;3.90;;;;;;;8.45;63.33;101430.81;5040030;28;20469;-84
2022/03/15 02:55:24;;;;;;;10.77;4.10;;;;;;;8.30;63.22;101428.28;5021206;28;20415;-83
2022/03/15 02:57:49;;;;;;;10.50;3.70;;;;;;;8.25;63.99;101425.34;5032478;28;20476;-83
2022/03/15 03:00:16;;;;;;;8.37;3.87;;;;;;;8.23;64.06;101430.13;5033317;28;20952;-83
2022/03/15 03:02:42;;;;;;;7.05;3.55;;;;;;;8.10;64.13;101416.59;5022007;28;20415;-83
2022/03/15 03:05:07;;;;;;;5.97;3.72;;;;;;;8.04;65.13;101420.13;5033420;28;20541;-84
2022/03/15 03:07:35;;;;;;;8.00;4.03;;;;;;;8.03;65.05;101420.34;5030697;28;20752;-84
2022/03/15 03:10:01;;;;;;;9.35;3.97;;;;;;;8.01;64.70;101431.31;5028470;28;20763;-83
2022/03/15 03:12:28;;;;;;;6.33;3.30;;;;;;;7.95;64.64;101426.75;5033772;28;20418;-83
2022/03/15 03:14:55;;;;;;;8.45;3.50;;;;;;;7.97;64.91;101421.16;5034156;28;20429;-83
2022/03/15 03:17:20;;;;;;;5.95;3.35;;;;;;;8.00;65.18;101424.25;5033957;28;20477;-84
2022/03/15 03:19:46;;;;;;;7.18;3.35;;;;;;;8.00;64.70;101429.66;5034180;28;20490;-83
2022/03/15 03:22:11;;;;;;;7.47;3.77;;;;;;;8.07;65.09;101425.09;5032679;28;20434;-83
2022/03/15 03:24:37;;;;;;;10.27;3.63;;;;;;;8.10;64.53;101432.78;5034285;28;20930;-83
2022/03/15 03:27:03;;;;;;;7.07;4.20;;;;;;;8.10;64.94;101432.78;5029346;28;20401;-84
2022/03/15 03:29:29;;;;;;;9.03;4.20;;;;;;;8.15;65.70;101435.72;5033910;28;20414;-83
2022/03/15 03:31:55;;;;;;;6.75;3.40;;;;;;;8.14;65.59;101439.44;5034067;28;20474;-83
2022/03/15 03:34:24;;;;;;;7.97;3.80;;;;;;;8.12;66.47;101435.31;5033791;28;20403;-83
2022/03/15 03:36:49;;;;;;;5.43;3.90;;;;;;;8.13;66.37;101428.88;5028097;28;20417;-83
2022/03/15 03:39:14;;;;;;;8.05;3.40;;;;;;;8.15;66.30;101441.13;5032797;28;20407;-82
2022/03/15 03:41:40;;;;;;;6.13;4.03;;;;;;;8.21;66.21;101444.88;5033475;28;20887;-83
2022/03/15 03:44:06;;;;;;;5.10;3.43;;;;;;;8.22;66.10;101438.44;5033568;28;20407;-83
2022/03/15 03:46:31;;;;;;;4.90;3.50;;;;;;;8.25;66.05;101448.81;5033546;28;20492;-83
2022/03/15 03:48:57;;;;;;;7.45;3.80;;;;;;;8.26;66.20;101451.34;5033705;28;20418;-84
2022/03/15 03:51:23;;;;;;;7.72;3.97;;;;;;;8.26;66.44;101442.41;5030915;28;20924;-83
2022/03/15 03:53:48;;;;;;;6.75;3.90;;;;;;;8.25;66.44;101455.06;5033867;28;20478;-83
2022/03/15 03:56:14;;;;;;;9.70;4.37;;;;;;;8.26;65.75;101443.22;5032494;28;20403;-83
2022/03/15 03:58:39;;;;;;;7.00;3.80;;;;;;;8.19;65.70;101450.50;5033379;28;20407;-83
2022/03/15 04:01:04;;;;;;;10.02;4.65;;;;;;;8.12;65.49;101446.94;5030339;28;20773;-83
2022/03/15 04:03:31;;;;;;;9.40;3.73;;;;;;;8.15;65.46;101446.53;5033575;28;20908;-84
2022/03/15 04:05:57;;;;;;;7.33;3.90;;;;;;;8.16;65.41;101432.00;5030998;28;20427;-83
2022/03/15 04:08:24;;;;;;;9.63;3.88;;;;;;;8.16;66.10;101425.75;5031992;28;20812;-84
2022/03/15 04:10:50;;;;;;;7.00;4.22;;;;;;;8.08;66.45;101420.53;5033483;28;20486;-84
2022/03/15 04:13:18;;;;;;;7.00;3.58;;;;;;;8.11;66.31;101420.13;5032532;28;20490;-84
2022/03/15 04:15:48;;;;;;;6.00;3.97;;;;;;;8.16;66.46;101421.19;5033311;28;20457;-83
2022/03/15 04:18:14;;;;;;;10.73;4.05;;;;;;;8.18;65.73;101423.69;5032754;28;20735;-84
2022/03/15 04:20:40;;;;;;;6.15;4.00;;;;;;;8.14;65.51;101425.13;5030505;28;20442;-83
2022/03/15 04:23:06;;;;;;;7.55;3.85;;;;;;;8.11;66.35;101422.84;5032728;28;20904;-83
2022/03/15 04:25:31;;;;;;;6.40;3.80;;;;;;;8.08;66.78;101421.38;5048297;28;20414;-83
2022/03/15 04:28:00;;;;;;;5.50;3.40;;;;;;;8.07;66.60;101421.56;5032042;28;20515;-83
2022/03/15 04:30:26;;;;;;;7.60;3.40;;;;;;;8.04;66.79;101412.03;5028287;28;20916;-83
2022/03/15 04:32:52;;;;;;;11.60;3.97;;;;;;;8.04;67.21;101413.88;5025669;28;20403;-84
2022/03/15 04:35:17;;;;;;;9.97;4.37;;;;;;;8.02;67.61;101418.66;5031295;28;20989;-83
2022/03/15 04:37:42;;;;;;;5.77;4.30;;;;;;;7.98;67.46;101412.00;5027738;28;20411;-84
2022/03/15 04:40:09;;;;;;;8.87;3.97;;;;;;;7.97;67.52;101410.38;5032780;28;20776;-83
2022/03/15 04:42:34;;;;;;;7.40;4.20;;;;;;;7.96;67.70;101406.00;5031877;28;20399;-84
2022/03/15 04:44:59;;;;;;;5.80;3.53;;;;;;;7.97;67.74;101396.88;5032790;28;20399;-83
2022/03/15 04:47:25;;;;;;;5.45;3.45;;;;;;;7.96;67.67;101387.94;5029749;28;20489;-83
2022/03/15 04:49:50;;;;;;;6.23;3.90;;;;;;;7.95;67.30;101391.66;5030846;28;20501;-84
2022/03/15 04:52:17;;;;;;;6.63;3.50;;;;;;;7.94;68.04;101390.00;5032512;28;20930;-83
2022/03/15 04:54:42;;;;;;;10.82;4.47;;;;;;;7.90;68.22;101387.94;5014692;28;20411;-83
2022/03/15 04:57:07;;;;;;;7.97;4.27;;;;;;;7.89;68.23;101383.56;5024252;28;20745;-84
2022/03/15 04:59:33;;;;;;;8.15;4.15;;;;;;;7.88;68.66;101382.72;5026282;28;20758;-83
2022/03/15 05:01:58;;;;;;;6.60;4.07;;;;;;;7.90;68.84;101388.75;5030015;28;20427;-83
2022/03/15 05:04:23;;;;;;;9.73;4.63;;;;;;;7.88;68.04;101382.72;5031732;28;20783;-83
2022/03/15 05:06:48;;;;;;;4.23;3.10;;;;;;;7.87;68.26;101383.75;5025613;28;20431;-84
2022/03/15 05:09:16;;;;;;;9.32;4.43;;;;;;;7.84;67.98;101387.69;5031752;28;20500;-83
2022/03/15 05:11:45;;;;;;;10.40;4.35;;;;;;;7.77;68.60;101386.84;5028718;28;20444;-83
2022/03/15 05:14:11;;;;;;;7.30;4.22;;;;;;;7.78;68.85;101382.28;5029134;28;20469;-83
2022/03/15 05:16:36;;;;;;;6.82;3.97;;;;;;;7.78;68.63;101390.38;5013577;28;20763;-83
2022/03/15 05:19:01;;;;;;;7.57;3.70;;;;;;;7.65;69.61;101393.03;5031347;28;20395;-84
2022/03/15 05:21:27;;;;;;;7.28;3.83;;;;;;;7.63;68.92;101395.13;5027565;28;20882;-84
2022/03/15 05:23:54;;;;;;;5.33;4.50;;;;;;;7.51;69.40;101402.94;5030807;28;20446;-83
2022/03/15 05:26:23;;;;;;;8.10;4.50;;;;;;;7.47;69.32;101395.47;5028334;28;20508;-83
2022/03/15 05:28:49;;;;;;;10.32;4.30;;;;;;;7.52;69.06;101391.13;5031460;28;20411;-84
2022/03/15 05:31:23;;;;;;;5.45;3.83;;;;;;;7.47;68.90;101396.31;5029644;28;20410;-83
2022/03/15 05:33:49;;;;;;;8.80;3.92;;;;;;;7.50;69.02;101403.16;5041508;28;20480;-82
2022/03/15 05:36:15;;;;;;;7.10;4.80;;;;;;;7.54;68.95;101396.34;5029866;28;21061;-83
2022/03/15 05:38:41;;;;;;;9.80;5.15;;;;;;;7.54;69.25;101396.34;5023228;28;20422;-83
2022/03/15 05:41:08;;;;;;;8.80;4.73;;;;;;;7.56;68.96;101399.66;5029919;28;20546;-83
2022/03/15 05:43:37;;;;;;;8.70;5.10;;;;;;;7.54;68.99;101397.16;5043007;28;20497;-82
2022/03/15 05:46:03;;;;;;;10.77;4.90;;;;;;;7.56;69.29;101411.28;5036104;28;20418;-83
2022/03/15 05:48:28;;;;;;;9.38;5.00;;;;;;;7.57;69.00;101399.47;5028835;28;20426;-83
2022/03/15 05:50:53;;;;;;;6.00;4.00;;;;;;;7.63;68.64;101398.66;5023090;28;20786;-83
2022/03/15 05:53:19;;;;;;;10.10;5.43;;;;;;;7.62;68.99;101402.38;5021057;28;20541;-84
2022/03/15 05:55:44;;;;;;;8.98;5.95;;;;;;;7.62;68.87;101405.06;5025127;28;20403;-83
2022/03/15 05:58:09;;;;;;;8.57;4.90;;;;;;;7.60;68.57;101401.75;5031000;28;20418;-84
2022/03/15 06:00:35;;;;;;;6.95;5.00;;;;;;;7.66;69.04;101410.91;5028102;28;20479;-82
2022/03/15 06:03:00;;;;;;;10.40;5.83;;;;;;;7.73;68.35;101407.19;5029167;28;20411;-82
2022/03/15 06:05:25;;;;;;;10.87;6.23;;;;;;;7.78;68.24;101411.97;5033189;28;20397;-82
2022/03/15 06:07:52;;;;;;;13.00;8.02;;;;;;;7.72;68.49;101413.63;5032170;28;20427;-82
2022/03/15 06:10:23;;;;;;;14.32;9.82;;;;;;;7.61;69.33;101416.06;5027702;28;20438;-82
2022/03/15 06:12:49;;;;;;;11.30;7.15;;;;;;;7.46;69.66;101416.22;5030394;28;20407;-82
2022/03/15 06:15:15;;;;;;;10.80;6.80;;;;;;;7.44;69.99;101414.78;5029601;28;20405;-82
2022/03/15 06:17:52;;;;;;;15.40;9.68;;;;;;;7.53;69.39;101406.28;5028559;28;20407;-81
2022/03/15 06:20:19;;;;;;;8.75;5.78;;;;;;;7.69;68.52;101410.50;5031360;28;20403;-82
2022/03/15 06:22:46;;;;;;;11.60;6.50;;;;;;;7.80;67.88;101409.91;5025187;28;20399;-81
2022/03/15 06:25:12;;;;;;;10.93;5.57;;;;;;;7.85;67.75;101415.53;5031068;28;20445;-88
2022/03/15 06:27:38;;;;;;;8.55;5.28;;;;;;;7.90;67.67;101418.44;5029464;28;20418;-82
2022/03/15 06:30:06;;;;;;;5.67;5.13;;;;;;;7.97;67.40;101427.38;5029258;28;20439;-81
2022/03/15 06:32:32;;;;;;;18.02;9.18;;;;;;;8.00;67.41;101421.56;5028839;28;20476;-82
2022/03/15 06:34:58;;;;;;;11.35;7.10;;;;;;;7.94;67.70;101418.84;5028385;28;20415;-83
2022/03/15 06:37:25;;;;;;;8.30;6.77;;;;;;;8.00;67.78;101416.16;5027410;28;20898;-85
2022/03/15 06:39:50;;;;;;;9.52;5.25;;;;;;;7.98;66.70;101418.25;5030574;28;20406;-81
2022/03/15 06:42:16;;;;;;;7.47;4.43;;;;;;;7.97;67.05;101421.97;5039149;28;20403;-84
2022/03/15 06:44:42;;;;;;;7.47;4.73;;;;;;;8.00;67.77;101426.97;5030528;28;20886;-83
2022/03/15 06:47:08;;;;;;;6.13;4.60;;;;;;;8.01;68.21;101417.00;5028664;28;20425;-83
2022/03/15 06:49:33;;;;;;;6.05;4.30;;;;;;;8.02;68.68;101419.50;5029714;28;20750;-82
2022/03/15 06:51:58;;;;;;;11.13;6.00;;;;;;;7.93;69.36;101404.53;5027580;28;20820;-82
2022/03/15 06:54:24;;;;;;;11.07;6.93;;;;;;;7.90;68.85;101406.81;5045468;28;20419;-82
2022/03/15 06:56:50;;;;;;;18.90;9.33;;;;;;;7.96;67.66;101412.22;5028133;28;20834;-82
2022/03/15 06:59:15;;;;;;;11.43;5.87;;;;;;;8.04;68.31;101400.38;5023430;28;20425;-83
2022/03/15 07:01:40;;;;;;;10.30;6.37;;;;;;;8.07;68.57;101391.88;5024941;28;21149;-83
2022/03/15 07:04:05;;;;;;;12.47;8.57;;;;;;;8.03;68.06;101391.50;5025992;28;20503;-82
2022/03/15 07:06:31;;;;;;;26.48;13.57;;;;;;;8.09;67.13;101390.66;5029413;28;20740;-82
2022/03/15 07:08:56;;;;;;;7.97;4.77;;;;;;;8.11;67.48;101385.03;5030692;28;20450;-82
2022/03/15 07:11:21;;;;;;;10.45;5.10;;;;;;;8.13;68.26;101385.69;5020968;28;20405;-83
2022/03/15 07:13:49;;;;;;;7.00;4.97;;;;;;;8.14;69.50;101385.47;5030400;28;20403;-82
2022/03/15 07:16:15;;;;;;;8.75;4.88;;;;;;;8.19;68.79;101392.94;5025809;28;20416;-83
2022/03/15 07:18:41;;;;;;;8.23;4.75;;;;;;;8.18;68.61;101380.47;5029095;28;20411;-82
2022/03/15 07:21:06;;;;;;;10.25;5.40;;;;;;;8.10;68.80;101384.19;5030558;28;20452;-83
2022/03/15 07:23:31;;;;;;;14.53;6.20;;;;;;;8.10;69.21;101380.69;5030252;28;20399;-82
2022/03/15 07:25:57;;;;;;;10.77;5.28;;;;;;;8.15;69.37;101378.19;5022379;28;20411;-83
2022/03/15 07:28:22;;;;;;;7.93;4.90;;;;;;;8.19;69.28;101379.44;5028634;28;20898;-82
2022/03/15 07:30:47;;;;;;;11.35;5.70;;;;;;;8.19;69.36;101382.97;5030320;28;20401;-82
2022/03/15 07:33:12;;;;;;;7.67;5.00;;;;;;;8.23;69.77;101376.09;5027084;28;20415;-83
2022/03/15 07:35:38;;;;;;;9.50;5.38;;;;;;;8.23;69.40;101370.72;5029060;28;20418;-83
2022/03/15 07:38:03;;;;;;;9.03;4.83;;;;;;;8.19;69.00;101363.25;5029118;28;20422;-83
2022/03/15 07:40:29;;;;;;;8.60;5.45;;;;;;;8.21;69.06;101362.00;5027519;28;20925;-84
2022/03/15 07:42:54;;;;;;;10.57;6.07;;;;;;;8.25;69.26;101365.13;5029592;28;20493;-83
2022/03/15 07:45:20;;;;;;;9.70;5.70;;;;;;;8.22;68.84;101360.13;5032406;28;20414;-83
2022/03/15 07:47:47;;;;;;;12.67;6.17;;;;;;;8.22;68.70;101355.56;5033017;28;20458;-82
2022/03/15 07:50:13;;;;;;;9.15;5.55;;;;;;;8.13;69.34;101354.13;5032627;28;20403;-81
2022/03/15 07:52:39;;;;;;;9.48;5.40;;;;;;;8.10;69.73;101361.78;5029684;28;20433;-81
2022/03/15 07:55:05;;;;;;;9.07;5.53;;;;;;;8.04;69.71;101351.81;5030270;28;20482;-81
2022/03/15 07:57:30;;;;;;;12.70;4.80;;;;;;;7.89;70.50;101352.00;5049492;28;20421;-81
2022/03/15 07:59:56;;;;;;;10.50;5.22;;;;;;;7.92;70.83;101348.06;5049313;28;20423;-81
2022/03/15 08:02:22;;;;;;;9.17;5.60;;;;;;;8.05;70.81;101350.78;5032870;28;20395;-81
2022/03/15 08:04:47;;;;;;;10.25;5.03;;;;;;;8.11;70.23;101342.69;5029889;28;20407;-81
2022/03/15 08:07:13;;;;;;;8.90;5.80;;;;;;;7.95;71.18;101334.97;5033306;28;20916;-81
2022/03/15 08:09:39;;;;;;;10.47;6.20;;;;;;;8.01;71.25;101344.13;5032608;28;20411;-81
2022/03/15 08:12:05;;;;;;;7.23;5.10;;;;;;;8.10;71.06;101351.00;5033370;28;20402;-81
2022/03/15 08:14:30;;;;;;;13.50;5.35;;;;;;;8.04;71.39;101347.25;5033896;28;20388;-81
2022/03/15 08:16:55;;;;;;;8.65;5.10;;;;;;;8.05;71.74;101354.31;5033637;28;20482;-81
2022/03/15 08:19:21;;;;;;;9.03;5.17;;;;;;;8.17;70.91;101357.22;5033071;28;20415;-81
2022/03/15 08:21:46;;;;;;;9.23;4.50;;;;;;;8.19;70.75;101358.69;5029338;28;20920;-80
2022/03/15 08:24:11;;;;;;;7.07;4.67;;;;;;;8.26;70.47;101355.97;5029156;28;20399;-81
2022/03/15 08:26:41;;;;;;;9.93;6.83;;;;;;;8.30;70.41;101358.06;5033695;28;20395;-80
2022/03/15 08:29:07;;;;;;;12.57;5.70;;;;;;;8.24;70.83;101352.66;5033474;28;20977;-81
2022/03/15 08:31:32;;;;;;;14.00;5.75;;;;;;;8.19;71.79;101352.44;5032558;28;20395;-80
2022/03/15 08:33:57;;;;;;;9.07;6.37;;;;;;;8.24;72.16;101344.53;5032210;28;20850;-81
2022/03/15 08:36:23;;;;;;;6.83;5.87;;;;;;;8.35;71.61;101352.06;5042371;28;20426;-81
2022/03/15 08:38:48;;;;;;;9.90;4.93;;;;;;;8.47;70.57;101354.94;5032079;28;20386;-81
2022/03/15 08:41:14;;;;;;;12.93;5.77;;;;;;;8.48;71.10;101357.44;5048759;28;20406;-81
2022/03/15 08:43:40;;;;;;;9.83;6.17;;;;;;;8.54;70.89;101356.59;5029891;28;20445;-80
2022/03/15 08:46:05;;;;;;;14.68;10.60;;;;;;;8.57;71.45;101341.84;5033307;28;20406;-80
2022/03/15 08:48:31;;;;;;;13.02;8.68;;;;;;;8.62;72.24;101348.31;5023766;28;20545;-80
2022/03/15 08:51:00;;;;;;;8.63;6.32;;;;;;;8.65;71.79;101342.47;5047784;28;20415;-80
2022/03/15 08:53:25;;;;;;;11.32;6.55;;;;;;;8.66;73.40;101337.91;5031383;28;20937;-80
2022/03/15 08:55:50;;;;;;;12.77;6.73;;;;;;;8.64;73.04;101330.00;5032140;28;20423;-80
2022/03/15 08:58:15;;;;;;;10.43;6.50;;;;;;;8.60;72.98;101325.22;5032525;28;20469;-80
2022/03/15 09:00:41;;;;;;;13.67;6.67;;;;;;;8.67;73.73;101323.31;5033079;28;20758;-81
2022/03/15 09:03:06;;;;;;;16.20;6.75;;;;;;;8.73;73.70;101328.72;5032147;28;20827;-80
2022/03/15 09:05:32;;;;;;;14.20;7.03;;;;;;;8.77;73.27;101318.31;5032979;28;20440;-80
2022/03/15 09:07:57;;;;;;;10.20;5.90;;;;;;;8.76;72.79;101328.28;5031168;28;20771;-80
2022/03/15 09:10:23;;;;;;;12.00;6.27;;;;;;;8.75;72.82;101315.84;5044922;28;20921;-80
2022/03/15 09:12:50;;;;;;;9.77;7.05;;;;;;;8.73;73.07;101303.56;5032719;28;20870;-80
2022/03/15 09:15:16;;;;;;;13.50;7.20;;;;;;;8.64;74.09;101300.28;5031411;28;20445;-80
2022/03/15 09:17:43;;;;;;;14.03;7.10;;;;;;;8.56;74.53;101305.09;5031053;28;20407;-80
2022/03/15 09:20:09;;;;;;;14.02;7.28;;;;;;;8.53;74.42;101287.41;5031543;28;20415;-80
2022/03/15 09:22:35;;;;;;;11.93;6.95;;;;;;;8.46;74.94;101286.59;5030731;28;20406;-81
2022/03/15 09:25:00;;;;;;;11.63;6.43;;;;;;;8.40;75.80;101275.81;5032632;28;20755;-81
2022/03/15 09:27:25;;;;;;;11.50;6.93;;;;;;;8.42;75.30;101269.16;5031163;28;20403;-81
2022/03/15 09:29:51;;;;;;;11.77;6.60;;;;;;;8.43;75.49;101262.69;5032484;28;20851;-80
2022/03/15 09:32:16;;;;;;;13.30;7.57;;;;;;;8.41;75.16;101255.84;5030954;28;20417;-81
2022/03/15 09:34:44;;;;;;;23.43;8.73;;;;;;;8.35;75.75;101249.44;5030701;28;20395;-81
2022/03/15 09:37:10;;;;;;;12.38;9.45;;;;;;;8.29;76.30;101240.31;5047003;28;20766;-81
2022/03/15 09:39:35;;;;;;;22.92;18.40;;;;;;;8.27;77.05;101242.34;5032220;28;20387;-83
2022/03/15 09:42:07;;;;;;;17.13;15.02;;;;;;;8.26;76.29;101235.31;5028414;28;20459;-82
2022/03/15 09:44:34;;;;;;;14.25;8.40;;;;;;;8.24;77.13;101237.38;5029952;28;20430;-81
2022/03/15 09:47:03;;;;;;;16.03;7.70;;;;;;;8.18;77.03;101230.13;5031772;28;20403;-81
2022/03/15 09:49:29;;;;;;;16.50;7.03;;;;;;;8.18;76.93;101221.19;5028585;28;20419;-81
2022/03/15 09:51:56;;;;;;;13.77;7.47;;;;;;;8.19;76.96;101212.88;5026771;28;20772;-81
2022/03/15 09:54:22;;;;;;;11.75;7.00;;;;;;;8.18;77.24;101210.38;5019366;28;20398;-81
2022/03/15 09:56:48;;;;;;;14.32;7.57;;;;;;;8.22;77.11;101217.84;5044294;28;20405;-81
2022/03/15 09:59:16;;;;;;;16.67;8.13;;;;;;;8.24;77.44;101218.47;5032032;28;20503;-81
2022/03/15 10:01:43;;;;;;;12.63;7.38;;;;;;;8.24;78.19;101212.22;5047194;28;20448;-81
2022/03/15 10:04:09;;;;;;;13.95;7.65;;;;;;;8.36;77.20;101220.56;5031057;28;20862;-81
2022/03/15 10:06:38;;;;;;;20.30;8.63;;;;;;;8.45;76.36;101212.00;5046313;28;20514;-81
2022/03/15 10:09:05;;;;;;;14.38;9.85;;;;;;;8.56;76.72;101213.22;5031695;28;20418;-81
2022/03/15 10:11:30;;;;;;;22.95;10.20;;;;;;;8.69;76.19;101199.66;5031942;28;20486;-81
2022/03/15 10:13:56;;;;;;;15.30;9.30;;;;;;;8.81;76.23;101196.06;5030430;28;20470;-81
2022/03/15 10:16:30;;;;;;;15.15;7.95;;;;;;;8.95;75.86;101193.28;5031204;28;20536;-81
2022/03/15 10:18:57;;;;;;;12.68;8.13;;;;;;;9.06;75.83;101189.88;5044405;28;20406;-80
2022/03/15 10:21:26;;;;;;;12.82;6.88;;;;;;;9.13;75.04;101182.56;5031650;28;20739;-81
2022/03/15 10:23:54;;;;;;;15.63;7.53;;;;;;;9.15;75.72;101178.63;5030207;28;20399;-81
2022/03/15 10:26:24;;;;;;;14.57;7.93;;;;;;;9.19;75.86;101154.66;5031570;28;20456;-81
2022/03/15 10:28:53;;;;;;;11.57;7.85;;;;;;;9.25;75.71;101146.50;5031677;28;20407;-81
2022/03/15 10:31:22;;;;;;;12.20;7.60;;;;;;;9.33;75.18;101143.53;5043488;28;20403;-81
2022/03/15 10:33:47;;;;;;;12.40;6.88;;;;;;;9.34;74.95;101134.38;5031078;28;20454;-81
2022/03/15 10:36:17;;;;;;;9.73;7.03;;;;;;;9.46;74.89;101128.22;5031103;28;20430;-81
2022/03/15 10:38:47;;;;;;;8.75;6.65;;;;;;;9.52;74.74;101117.34;5044373;28;20422;-81
2022/03/15 10:41:16;;;;;;;11.07;6.90;;;;;;;9.55;74.61;101118.81;5031419;28;20555;-81
2022/03/15 10:43:41;;;;;;;9.45;7.07;;;;;;;9.56;74.87;101109.63;5030567;28;20780;-81
2022/03/15 10:46:10;;;;;;;10.07;6.20;;;;;;;9.40;74.80;101092.06;5030221;28;20478;-81
2022/03/15 10:48:36;;;;;;;12.20;7.80;;;;;;;9.47;75.48;101095.56;5030068;28;21015;-81
2022/03/15 10:51:14;;;;;;;12.17;6.93;;;;;;;9.65;75.06;101083.94;5031427;28;20395;-81
2022/03/15 10:53:42;;;;;;;12.70;7.70;;;;;;;9.76;74.19;101086.72;5042533;28;20423;-81
2022/03/15 10:56:10;;;;;;;11.18;7.75;;;;;;;9.67;74.50;101098.91;5029370;28;20411;-81
2022/03/15 10:58:42;;;;;;;13.00;8.30;;;;;;;9.62;74.91;101106.84;5031242;28;20867;-82
2022/03/15 11:01:17;;;;;;;13.88;8.40;;;;;;;9.70;74.93;101105.75;5026452;28;20488;-81
2022/03/15 11:04:00;;;;;;;11.95;8.13;;;;;;;9.66;74.91;101115.34;5026558;28;20409;-81
2022/03/15 11:06:38;;;;;;;18.42;9.40;;;;;;;9.77;75.11;101117.34;5025787;28;20508;-81
2022/03/15 11:09:19;;;;;;;17.13;8.82;;;;;;;9.88;75.08;101103.03;5028158;28;20419;-81
2022/03/15 11:11:54;;;;;;;17.43;8.63;;;;;;;9.91;75.20;101097.22;5038504;28;20571;-81
2022/03/15 11:14:36;;;;;;;14.60;8.00;;;;;;;10.05;74.17;101090.56;5029898;28;20570;-81
2022/03/15 11:17:05;;;;;;;14.35;7.47;;;;;;;10.19;73.82;101083.97;5030642;28;20410;-81
2022/03/15 11:19:37;;;;;;;16.37;8.10;;;;;;;10.30;73.27;101085.94;5030985;28;20422;-82
2022/03/15 11:22:03;;;;;;;10.35;7.47;;;;;;;10.20;73.69;101063.97;5030727;28;20410;-83
2022/03/15 11:24:37;;;;;;;18.15;8.35;;;;;;;9.98;74.65;101054.59;5034554;28;20395;-82